Time;durP1;ratioP1;P1;durP2;ratioP2;P2;SDS_P1;SDS_P2;PMS_P1;PMS_P2;Temp;Humidity;BMP_temperature;BMP_pressure;BME280_temperature;BME280_humidity;BME280_pressure;Samples;Min_cycle;Max_cycle;Signal;HPM_P1;HPM_P2
2022/07/21 00:01:30;;;;;;;3.80;3.50;;;;;;;20.35;100.00;151153.91;5093554;28;20279;-61
2022/07/21 00:03:57;;;;;;;3.67;3.47;;;;;;;20.40;100.00;151166.66;5093695;28;20208;-62
2022/07/21 00:06:24;;;;;;;8.80;3.13;;;;;;;20.44;100.00;151176.84;5093898;28;20630;-62
2022/07/21 00:08:52;;;;;;;2.60;2.50;;;;;;;20.48;100.00;151185.75;5093604;28;20192;-61
2022/07/21 00:11:19;;;;;;;2.95;2.85;;;;;;;20.63;100.00;151222.66;5093811;28;20314;-61
2022/07/21 00:13:46;;;;;;;3.83;2.88;;;;;;;20.68;100.00;151235.41;5093385;28;20638;-61
2022/07/21 00:16:14;;;;;;;2.30;2.20;;;;;;;20.80;100.00;151265.97;5093642;28;20188;-61
2022/07/21 00:18:41;;;;;;;2.22;2.13;;;;;;;20.92;100.00;151297.81;5093291;28;20245;-61
2022/07/21 00:21:08;;;;;;;2.30;2.20;;;;;;;20.98;100.00;151311.84;5091869;28;20662;-61
2022/07/21 00:23:35;;;;;;;2.33;2.22;;;;;;;21.07;100.00;151334.78;5093100;28;20176;-61
2022/07/21 00:26:02;;;;;;;7.18;2.63;;;;;;;21.21;100.00;151369.25;5093133;28;20184;-61
2022/07/21 00:28:29;;;;;;;2.53;2.33;;;;;;;21.33;100.00;151399.81;5093352;28;20535;-61
2022/07/21 00:30:56;;;;;;;2.72;2.45;;;;;;;21.38;100.00;151412.56;5093245;28;20528;-61
2022/07/21 00:33:24;;;;;;;4.05;2.72;;;;;;;21.47;100.00;151435.53;5093071;28;20682;-62
2022/07/21 00:35:51;;;;;;;3.22;2.30;;;;;;;21.56;100.00;151457.13;5092947;28;20199;-60
2022/07/21 00:38:18;;;;;;;4.63;2.22;;;;;;;21.62;100.00;151472.44;5093149;28;20275;-61
2022/07/21 00:40:44;;;;;;;2.75;2.25;;;;;;;21.60;100.00;151467.38;5092677;28;20190;-61
2022/07/21 00:43:11;;;;;;;3.47;2.30;;;;;;;21.61;100.00;151469.88;5093097;28;20574;-61
2022/07/21 00:45:38;;;;;;;2.30;2.20;;;;;;;21.62;100.00;151472.44;5092903;28;20603;-61
2022/07/21 00:48:06;;;;;;;2.80;2.00;;;;;;;21.63;100.00;151476.28;5092348;28;20267;-62
2022/07/21 00:50:37;;;;;;;3.42;2.22;;;;;;;21.49;100.00;151439.31;5092803;28;20642;-60
2022/07/21 00:53:04;;;;;;;4.45;2.28;;;;;;;21.60;100.00;151468.59;5092756;28;20616;-62
2022/07/21 00:55:31;;;;;;;2.67;2.38;;;;;;;21.57;100.00;151459.69;5092690;28;20188;-62
2022/07/21 00:57:58;;;;;;;2.70;2.35;;;;;;;21.60;100.00;151467.38;5092890;28;20192;-61
2022/07/21 01:00:27;;;;;;;6.63;2.55;;;;;;;21.52;100.00;151446.94;5093050;28;20558;-61
2022/07/21 01:02:55;;;;;;;5.32;2.28;;;;;;;21.54;100.00;151452.06;5092249;28;20184;-62
2022/07/21 01:05:23;;;;;;;2.03;1.92;;;;;;;21.50;100.00;151441.88;5092391;28;20180;-61
2022/07/21 01:07:53;;;;;;;5.38;2.40;;;;;;;21.52;100.00;151448.22;5092337;28;20191;-61
2022/07/21 01:10:24;;;;;;;3.10;2.50;;;;;;;21.49;100.00;151439.31;5092654;28;20200;-61
2022/07/21 01:12:51;;;;;;;2.47;2.38;;;;;;;21.49;100.00;151439.31;5092187;28;20235;-61
2022/07/21 01:15:20;;;;;;;3.50;2.13;;;;;;;21.35;100.00;151406.16;5092524;28;20199;-61
2022/07/21 01:17:47;;;;;;;3.83;1.98;;;;;;;21.41;100.00;151421.50;5092469;28;20195;-61
2022/07/21 01:20:20;;;;;;;2.22;2.13;;;;;;;21.47;100.00;151434.25;5092449;28;20187;-61
2022/07/21 01:22:51;;;;;;;4.45;3.17;;;;;;;21.42;100.00;151424.03;5092050;28;20189;-61
2022/07/21 01:25:20;;;;;;;7.68;2.80;;;;;;;21.32;100.00;151397.25;5092064;28;20195;-61
2022/07/21 01:27:47;;;;;;;3.45;2.80;;;;;;;21.13;100.00;151348.88;5092005;28;20199;-61
2022/07/21 01:30:15;;;;;;;2.95;2.38;;;;;;;21.06;100.00;151332.22;5092372;28;20188;-61
2022/07/21 01:32:42;;;;;;;3.33;3.03;;;;;;;20.95;100.00;151304.22;5092028;28;20208;-61
2022/07/21 01:35:12;;;;;;;6.85;3.22;;;;;;;20.89;100.00;151290.19;5092157;28;20553;-61
2022/07/21 01:37:41;;;;;;;2.97;2.80;;;;;;;20.72;100.00;151245.59;5092156;28;20188;-61
2022/07/21 01:42:56;;;;;;;2.85;2.70;;;;;;;20.56;100.00;151204.84;5092008;28;20286;-60
2022/07/21 01:45:23;;;;;;;4.35;3.00;;;;;;;20.49;100.00;151188.31;5092111;28;20195;-61
2022/07/21 01:47:50;;;;;;;3.40;3.08;;;;;;;20.58;100.00;151209.97;5091942;28;20582;-62
2022/07/21 01:50:18;;;;;;;3.05;2.85;;;;;;;20.56;100.00;151204.84;5091802;28;20188;-61
2022/07/21 01:52:46;;;;;;;3.33;3.00;;;;;;;20.56;100.00;151204.84;5091814;28;20651;-61
2022/07/21 01:55:14;;;;;;;2.85;2.65;;;;;;;20.50;100.00;151192.09;5091978;28;20604;-61
2022/07/21 01:57:41;;;;;;;3.38;2.25;;;;;;;20.37;100.00;151159.00;5091955;28;20184;-61
2022/07/21 02:00:10;;;;;;;5.85;3.10;;;;;;;20.43;100.00;151174.28;5091925;28;20188;-62
2022/07/21 02:02:37;;;;;;;3.20;2.60;;;;;;;20.40;100.00;151166.66;5095713;28;20270;-61
2022/07/21 02:05:05;;;;;;;4.68;2.88;;;;;;;20.44;100.00;151175.56;5096015;28;20180;-61
2022/07/21 02:07:33;;;;;;;4.18;2.30;;;;;;;20.42;100.00;151170.47;5095643;28;20190;-61
2022/07/21 02:10:00;;;;;;;5.25;2.80;;;;;;;20.38;100.00;151161.56;5096019;28;20200;-61
2022/07/21 02:12:29;;;;;;;4.63;2.58;;;;;;;20.41;100.00;151169.19;5095543;28;20235;-61
2022/07/21 02:14:55;;;;;;;6.13;2.47;;;;;;;20.39;100.00;151164.09;5095840;28;20594;-62
2022/07/21 02:17:22;;;;;;;6.40;2.75;;;;;;;20.44;100.00;151176.84;5095843;28;20270;-61
2022/07/21 02:19:49;;;;;;;4.57;3.08;;;;;;;20.50;100.00;151192.09;5095424;28;20626;-61
2022/07/21 02:22:16;;;;;;;7.80;2.80;;;;;;;20.52;100.00;151197.22;5095587;28;20184;-61
2022/07/21 02:24:43;;;;;;;3.92;3.08;;;;;;;20.60;100.00;151215.03;5095330;28;20191;-61
2022/07/21 02:27:10;;;;;;;3.40;3.17;;;;;;;20.69;100.00;151237.97;5095423;28;20188;-61
2022/07/21 02:29:38;;;;;;;6.30;3.20;;;;;;;20.72;100.00;151246.88;5095175;28;20180;-62
2022/07/21 02:32:06;;;;;;;3.22;2.90;;;;;;;20.68;100.00;151235.41;5095318;28;20211;-62
2022/07/21 02:34:32;;;;;;;2.78;2.50;;;;;;;20.70;100.00;151240.53;5095140;28;20291;-61
2022/07/21 02:36:59;;;;;;;5.53;3.10;;;;;;;20.72;100.00;151246.88;5095605;28;20199;-61
2022/07/21 02:39:27;;;;;;;8.00;2.80;;;;;;;20.72;100.00;151245.59;5094288;28;20188;-61
2022/07/21 02:41:56;;;;;;;6.80;2.50;;;;;;;20.60;100.00;151215.03;5095447;28;20675;-61
2022/07/21 02:44:23;;;;;;;3.47;2.85;;;;;;;20.55;100.00;151203.56;5095496;28;20195;-61
2022/07/21 02:46:51;;;;;;;5.15;3.38;;;;;;;20.51;100.00;151194.66;5095224;28;20658;-61
2022/07/21 02:49:18;;;;;;;7.18;3.35;;;;;;;20.37;100.00;151157.72;5093641;28;20472;-61
2022/07/21 02:51:45;;;;;;;6.20;3.13;;;;;;;20.23;100.00;151122.03;5095086;28;20630;-61
2022/07/21 02:54:12;;;;;;;9.13;3.20;;;;;;;20.25;100.00;151128.38;5095152;28;20689;-61
2022/07/21 02:56:39;;;;;;;6.82;3.63;;;;;;;20.27;100.00;151133.50;5095024;28;20192;-62
2022/07/21 02:59:06;;;;;;;10.87;4.60;;;;;;;20.12;100.00;151095.28;5093718;28;20184;-62
2022/07/21 03:01:33;;;;;;;11.63;4.40;;;;;;;20.13;100.00;151097.84;5094933;28;20195;-61
2022/07/21 03:04:01;;;;;;;5.50;3.93;;;;;;;20.21;100.00;151116.94;5094666;28;20290;-62
2022/07/21 03:06:28;;;;;;;5.90;4.15;;;;;;;20.15;100.00;151102.94;5095332;28;20192;-61
2022/07/21 03:08:55;;;;;;;9.70;4.77;;;;;;;20.17;100.00;151108.03;5094867;28;20188;-61
2022/07/21 03:11:22;;;;;;;5.23;4.80;;;;;;;20.16;100.00;151105.47;5094428;28;20228;-61
2022/07/21 03:13:49;;;;;;;8.27;4.90;;;;;;;20.02;100.00;151071.13;5094755;28;20298;-61
2022/07/21 03:16:16;;;;;;;16.83;5.43;;;;;;;19.85;100.00;151026.56;5094493;28;20190;-61
2022/07/21 03:18:43;;;;;;;14.00;6.10;;;;;;;19.81;100.00;151016.38;5094415;28;20274;-61
2022/07/21 03:21:11;;;;;;;8.83;6.07;;;;;;;19.81;100.00;151017.66;5094253;28;20188;-62
2022/07/21 03:23:38;;;;;;;21.30;6.67;;;;;;;19.83;100.00;151021.44;5094476;28;20286;-62
2022/07/21 03:26:05;;;;;;;13.63;6.10;;;;;;;19.86;100.00;151030.34;5095068;28;20184;-62
2022/07/21 03:28:32;;;;;;;7.97;5.70;;;;;;;19.87;100.00;151032.91;5094593;28;20263;-61
2022/07/21 03:30:59;;;;;;;14.80;6.37;;;;;;;19.87;100.00;151031.63;5094384;28;20188;-61
2022/07/21 03:33:26;;;;;;;10.47;5.57;;;;;;;19.85;100.00;151026.56;5094365;28;20294;-61
2022/07/21 03:35:53;;;;;;;15.47;6.03;;;;;;;19.85;100.00;151027.84;5094301;28;20627;-61
2022/07/21 03:38:21;;;;;;;23.90;6.35;;;;;;;19.91;100.00;151041.81;5094358;28;20550;-62
2022/07/21 03:40:48;;;;;;;10.83;5.53;;;;;;;20.07;100.00;151082.59;5094216;28;20195;-61
2022/07/21 03:43:15;;;;;;;24.90;7.27;;;;;;;20.23;100.00;151122.03;5093879;28;20677;-61
2022/07/21 03:45:42;;;;;;;15.18;6.60;;;;;;;20.51;100.00;151193.38;5094124;28;20191;-62
2022/07/21 03:48:10;;;;;;;11.98;6.07;;;;;;;20.77;100.00;151259.63;5093863;28;20199;-61
2022/07/21 03:50:42;;;;;;;14.57;6.78;;;;;;;21.15;100.00;151355.22;5094083;28;20184;-62
2022/07/21 03:53:09;;;;;;;18.50;7.03;;;;;;;21.41;100.00;151421.50;5093725;28;20218;-62
2022/07/21 03:55:37;;;;;;;17.65;7.15;;;;;;;21.49;100.00;151440.59;5093642;28;20185;-62
2022/07/21 03:58:06;;;;;;;21.83;7.13;;;;;;;21.51;100.00;151444.44;5093639;28;20190;-61
2022/07/21 04:00:36;;;;;;;12.75;6.05;;;;;;;21.92;100.00;151549.00;5093568;28;20184;-62
2022/07/21 04:03:04;;;;;;;13.73;6.25;;;;;;;22.11;100.00;151597.41;5094170;28;20180;-61
2022/07/21 04:05:31;;;;;;;6.03;5.53;;;;;;;22.05;100.00;151580.84;5093469;28;20195;-60
2022/07/21 04:07:58;;;;;;;7.03;6.00;;;;;;;22.31;100.00;151648.44;5093853;28;20182;-61
2022/07/21 04:10:26;;;;;;;8.98;5.35;;;;;;;22.54;100.00;151705.81;5093846;28;20562;-61
2022/07/21 04:12:56;;;;;;;12.45;5.47;;;;;;;22.85;100.00;151783.66;5093154;28;20220;-61
2022/07/21 04:15:24;;;;;;;15.25;6.25;;;;;;;23.01;100.00;151823.19;5093145;28;20188;-61
2022/07/21 04:17:51;;;;;;;9.90;6.22;;;;;;;22.96;100.00;151811.72;5093514;28;20192;-61
2022/07/21 04:20:19;;;;;;;9.05;5.95;;;;;;;23.12;100.00;151851.28;5093939;28;20237;-54
2022/07/21 04:22:47;;;;;;;11.40;5.75;;;;;;;23.22;100.00;151878.06;5093027;28;20195;-62
2022/07/21 04:25:15;;;;;;;8.90;5.55;;;;;;;23.64;100.00;151982.75;5092877;28;20536;-60
2022/07/21 04:27:43;;;;;;;10.15;6.00;;;;;;;23.94;100.00;152059.34;5093394;28;20582;-60
2022/07/21 04:30:16;;;;;;;13.55;5.40;;;;;;;24.35;100.00;152162.81;5093247;28;20188;-60
2022/07/21 04:32:43;;;;;;;16.50;5.22;;;;;;;24.59;100.00;152222.81;5093607;28;20627;-61
2022/07/21 04:35:11;;;;;;;6.50;4.93;;;;;;;24.92;100.00;152307.16;5092894;28;20207;-61
2022/07/21 04:37:38;;;;;;;9.05;4.88;;;;;;;25.13;100.00;152359.53;5092791;28;20196;-61
2022/07/21 04:40:08;;;;;;;18.90;6.05;;;;;;;25.32;100.00;152406.81;5093306;28;20200;-61
2022/07/21 04:42:36;;;;;;;8.77;4.72;;;;;;;25.59;100.00;152475.84;5093006;28;20191;-60
2022/07/21 04:45:05;;;;;;;7.63;4.22;;;;;;;25.96;98.17;152567.91;5092955;28;20248;-61
2022/07/21 04:47:42;;;;;;;14.15;6.45;;;;;;;26.27;96.79;152647.16;5091592;28;20196;-61
2022/07/21 04:50:10;;;;;;;10.50;4.72;;;;;;;26.50;94.52;152704.72;5092909;28;20530;-60
2022/07/21 04:52:37;;;;;;;10.70;4.05;;;;;;;26.88;90.64;152801.97;5092409;28;20195;-60
2022/07/21 04:55:04;;;;;;;9.73;4.80;;;;;;;27.11;91.48;152860.84;5092563;28;20204;-61
2022/07/21 04:57:32;;;;;;;5.53;4.55;;;;;;;27.16;89.48;152872.31;5092395;28;20190;-61
2022/07/21 05:00:01;;;;;;;9.70;4.22;;;;;;;27.34;84.61;152917.06;5091557;28;20184;-62
2022/07/21 05:02:28;;;;;;;8.77;3.90;;;;;;;27.26;81.15;152899.19;5091415;28;20227;-62
2022/07/21 05:04:56;;;;;;;7.78;3.95;;;;;;;27.73;79.60;153015.66;5092710;28;20184;-61
2022/07/21 05:07:23;;;;;;;9.18;3.50;;;;;;;28.11;77.74;153114.25;5092789;28;20548;-62
2022/07/21 05:09:50;;;;;;;3.65;3.33;;;;;;;28.45;76.05;153200.03;5082679;28;20212;-61
2022/07/21 05:12:17;;;;;;;6.53;3.33;;;;;;;28.73;71.91;153269.25;5086068;28;20231;-61
2022/07/21 05:14:44;;;;;;;6.70;4.18;;;;;;;28.99;72.14;153335.78;5074406;28;20220;-63
2022/07/21 05:17:11;;;;;;;8.95;6.65;;;;;;;29.19;67.43;153385.78;5073044;28;20184;-62
2022/07/21 05:19:38;;;;;;;3.47;3.28;;;;;;;29.32;66.59;153420.38;5072397;28;20191;-61
2022/07/21 05:22:06;;;;;;;3.78;3.33;;;;;;;29.37;65.71;153433.19;5071822;28;20189;-61
2022/07/21 05:24:33;;;;;;;7.10;4.38;;;;;;;29.57;66.49;153481.88;5072501;28;20203;-61
2022/07/21 05:27:00;;;;;;;6.68;3.70;;;;;;;29.75;65.95;153529.25;5071890;28;20628;-62
2022/07/21 05:29:27;;;;;;;5.30;3.38;;;;;;;29.75;63.27;153527.97;5071947;28;20185;-61
2022/07/21 05:31:54;;;;;;;5.05;3.47;;;;;;;29.68;64.45;153510.06;5071835;28;20187;-64
2022/07/21 05:34:20;;;;;;;4.32;4.03;;;;;;;29.84;65.40;153551.03;5071642;28;20277;-61
2022/07/21 05:36:49;;;;;;;4.78;3.38;;;;;;;30.11;64.37;153620.31;5071926;28;20654;-61
2022/07/21 05:39:17;;;;;;;5.68;3.85;;;;;;;30.17;63.24;153635.66;5071926;28;20189;-61
2022/07/21 05:41:44;;;;;;;11.80;4.00;;;;;;;29.76;62.76;153530.56;5070613;28;20211;-62
2022/07/21 05:44:11;;;;;;;4.38;3.05;;;;;;;30.08;63.78;153612.63;5071979;28;20212;-62
2022/07/21 05:46:38;;;;;;;12.10;3.17;;;;;;;29.91;63.33;153570.34;5072140;28;20211;-63
2022/07/21 05:49:05;;;;;;;4.32;3.83;;;;;;;30.25;62.07;153654.94;5072116;28;20189;-61
2022/07/21 05:51:37;;;;;;;10.07;3.60;;;;;;;30.34;60.58;153679.25;5073104;28;20181;-65
2022/07/21 05:54:04;;;;;;;4.80;3.40;;;;;;;30.29;61.17;153666.47;5072277;28;20306;-63
2022/07/21 05:56:32;;;;;;;3.65;3.45;;;;;;;30.34;60.63;153679.25;5072063;28;20275;-63
2022/07/21 05:58:59;;;;;;;3.95;3.58;;;;;;;30.35;61.63;153681.81;5072085;28;20185;-59
2022/07/21 06:01:26;;;;;;;3.58;2.90;;;;;;;30.48;60.22;153713.91;5072257;28;20654;-60
2022/07/21 06:03:53;;;;;;;7.95;3.38;;;;;;;30.53;60.47;153725.44;5071775;28;20185;-61
2022/07/21 06:06:23;;;;;;;8.07;3.15;;;;;;;30.68;60.57;153763.94;5071918;28;20184;-62
2022/07/21 06:08:51;;;;;;;14.32;3.55;;;;;;;30.66;60.00;153758.78;5078451;28;20268;-61
2022/07/21 06:11:20;;;;;;;5.53;3.08;;;;;;;30.46;58.71;153707.50;5092006;28;20237;-61
2022/07/21 06:13:48;;;;;;;6.72;3.03;;;;;;;30.86;57.76;153810.06;5092700;28;20576;-61
2022/07/21 06:16:16;;;;;;;8.38;3.08;;;;;;;30.67;56.87;153761.34;5091782;28;20186;-62
2022/07/21 06:18:43;;;;;;;4.65;3.00;;;;;;;31.20;56.10;153897.28;5080650;28;20205;-62
2022/07/21 06:21:10;;;;;;;6.68;2.92;;;;;;;31.38;56.69;153942.19;5087647;28;20203;-62
2022/07/21 06:23:37;;;;;;;4.28;3.20;;;;;;;31.76;53.51;154037.16;5091912;28;20184;-62
2022/07/21 06:26:04;;;;;;;3.40;3.10;;;;;;;31.34;53.90;153930.66;5091605;28;20224;-62
2022/07/21 06:28:31;;;;;;;6.72;3.17;;;;;;;31.74;54.03;154033.34;5091493;28;20200;-61
2022/07/21 06:30:59;;;;;;;14.35;3.85;;;;;;;31.67;53.11;154015.34;5084976;28;20196;-62
2022/07/21 06:33:26;;;;;;;4.57;3.25;;;;;;;30.96;55.36;153835.72;5091723;28;20231;-61
2022/07/21 06:35:53;;;;;;;6.82;3.60;;;;;;;31.07;55.66;153862.66;5091563;28;20652;-62
2022/07/21 06:38:20;;;;;;;8.30;3.63;;;;;;;31.51;55.95;153974.25;5091878;28;20634;-62
2022/07/21 06:40:47;;;;;;;9.45;3.40;;;;;;;31.46;54.12;153961.41;5091542;28;20212;-61
2022/07/21 06:43:14;;;;;;;9.30;2.90;;;;;;;31.81;53.68;154051.28;5091615;28;20188;-61
2022/07/21 06:45:41;;;;;;;13.90;3.83;;;;;;;32.30;52.63;154174.47;5091479;28;20176;-61
2022/07/21 06:48:10;;;;;;;19.30;3.53;;;;;;;32.72;51.30;154281.06;5094307;28;20199;-61
2022/07/21 06:50:37;;;;;;;8.68;3.65;;;;;;;32.74;52.22;154286.19;5095545;28;20184;-62
2022/07/21 06:53:05;;;;;;;7.60;3.60;;;;;;;33.16;50.26;154394.06;5096140;28;20180;-60
2022/07/21 06:55:33;;;;;;;4.40;3.30;;;;;;;32.97;49.77;154346.47;5095494;28;20261;-61
2022/07/21 06:58:10;;;;;;;8.75;3.80;;;;;;;33.08;50.66;154374.75;5091623;28;20188;-62
2022/07/21 07:00:37;;;;;;;3.63;3.30;;;;;;;33.17;49.72;154396.63;5090994;28;20241;-60
2022/07/21 07:03:04;;;;;;;12.27;3.33;;;;;;;32.82;50.91;154308.00;5094663;28;20180;-61
2022/07/21 07:05:32;;;;;;;3.83;3.20;;;;;;;32.35;51.50;154188.59;5078847;28;20200;-62
2022/07/21 07:07:59;;;;;;;4.32;2.92;;;;;;;32.49;52.12;154223.25;5091958;28;20269;-62
2022/07/21 07:10:26;;;;;;;3.85;3.50;;;;;;;32.53;51.49;154234.81;5095916;28;20547;-61
2022/07/21 07:12:54;;;;;;;5.85;3.92;;;;;;;32.60;50.72;154252.75;5094080;28;20239;-61
2022/07/21 07:15:22;;;;;;;6.50;3.47;;;;;;;32.64;51.48;154261.78;5095466;28;20204;-62
2022/07/21 07:17:50;;;;;;;9.43;3.22;;;;;;;32.77;51.48;154295.16;5095433;28;20287;-61
2022/07/21 07:20:16;;;;;;;3.65;3.25;;;;;;;32.72;50.66;154282.31;5093047;28;20206;-62
2022/07/21 07:22:45;;;;;;;8.18;3.42;;;;;;;32.67;51.30;154269.50;5095051;28;20184;-60
2022/07/21 07:25:14;;;;;;;13.45;10.25;;;;;;;32.40;50.39;154200.16;5094744;28;20195;-64
2022/07/21 07:27:41;;;;;;;5.85;4.03;;;;;;;32.42;49.55;154205.31;5094873;28;20192;-63
2022/07/21 07:30:10;;;;;;;7.47;3.67;;;;;;;32.33;50.26;154183.47;5094985;28;20615;-61
2022/07/21 07:32:37;;;;;;;9.32;3.90;;;;;;;32.47;50.50;154218.09;5094399;28;20481;-61
2022/07/21 07:35:04;;;;;;;3.72;3.25;;;;;;;32.53;50.04;154234.81;5093283;28;20630;-61
2022/07/21 07:37:31;;;;;;;5.38;3.50;;;;;;;32.82;49.33;154308.00;5095587;28;20619;-61
2022/07/21 07:40:01;;;;;;;5.28;3.90;;;;;;;32.04;50.93;154110.25;5094434;28;20605;-61
2022/07/21 07:42:28;;;;;;;7.43;3.88;;;;;;;31.94;50.95;154084.63;5094990;28;20180;-62
2022/07/21 07:44:55;;;;;;;4.93;3.58;;;;;;;31.88;50.31;154067.91;5094474;28;20184;-63
2022/07/21 07:47:22;;;;;;;5.78;3.33;;;;;;;31.52;51.26;153978.13;5094653;28;20249;-62
2022/07/21 07:49:50;;;;;;;7.75;3.45;;;;;;;31.53;51.59;153979.41;5093517;28;20246;-63
2022/07/21 07:52:17;;;;;;;7.05;3.28;;;;;;;31.72;52.02;154028.16;5094644;28;20220;-62
2022/07/21 07:54:44;;;;;;;8.00;3.65;;;;;;;32.12;51.07;154129.59;5094910;28;20578;-62
2022/07/21 07:57:12;;;;;;;13.27;4.15;;;;;;;32.37;50.41;154192.47;5093906;28;20223;-62
2022/07/21 07:59:39;;;;;;;3.60;3.40;;;;;;;32.55;49.26;154239.91;5092885;28;20275;-62
2022/07/21 08:02:06;;;;;;;4.60;3.28;;;;;;;32.66;49.45;154266.94;5094108;28;20180;-61
2022/07/21 08:04:35;;;;;;;3.83;3.10;;;;;;;32.35;49.50;154188.59;5094417;28;20188;-62
2022/07/21 08:07:02;;;;;;;3.97;3.47;;;;;;;32.98;49.73;154347.78;5094234;28;20188;-61
2022/07/21 08:09:29;;;;;;;15.43;4.00;;;;;;;32.91;47.69;154331.09;5094678;28;20695;-61
2022/07/21 08:11:56;;;;;;;5.05;3.60;;;;;;;33.11;48.09;154379.88;5084043;28;20678;-62
2022/07/21 08:14:24;;;;;;;3.50;3.20;;;;;;;33.73;47.57;154537.94;5093139;28;20211;-62
2022/07/21 08:16:51;;;;;;;8.50;3.88;;;;;;;34.15;45.53;154645.81;5093748;28;20192;-62
2022/07/21 08:19:18;;;;;;;3.92;3.63;;;;;;;34.48;44.90;154728.06;5093690;28;20184;-62
2022/07/21 08:21:47;;;;;;;6.35;3.60;;;;;;;34.20;44.76;154657.44;5093748;28;20187;-62
2022/07/21 08:24:14;;;;;;;3.53;3.30;;;;;;;34.22;44.38;154662.53;5093732;28;20227;-62
2022/07/21 08:26:41;;;;;;;5.72;3.70;;;;;;;34.46;43.84;154722.94;5075569;28;20346;-62
2022/07/21 08:29:08;;;;;;;3.50;3.30;;;;;;;33.96;44.11;154596.97;5094303;28;20484;-62
2022/07/21 08:31:36;;;;;;;5.03;3.47;;;;;;;33.48;43.94;154474.97;5093652;28;20190;-65
2022/07/21 08:34:03;;;;;;;7.40;3.63;;;;;;;32.41;46.77;154204.00;5075412;28;20203;-62
2022/07/21 08:36:30;;;;;;;3.47;3.20;;;;;;;32.94;46.44;154338.78;5087168;28;20223;-63
2022/07/21 08:38:57;;;;;;;3.35;3.22;;;;;;;32.79;47.24;154300.31;5081858;28;20267;-63
2022/07/21 08:41:25;;;;;;;3.30;3.00;;;;;;;33.07;46.51;154372.19;5087780;28;20201;-62
2022/07/21 08:43:52;;;;;;;3.58;3.25;;;;;;;33.08;46.51;154373.47;5073284;28;20288;-63
2022/07/21 08:46:23;;;;;;;4.47;3.60;;;;;;;33.25;46.66;154417.16;5073770;28;20185;-61
2022/07/21 08:48:52;;;;;;;3.53;3.22;;;;;;;33.22;46.86;154409.47;5073437;28;20185;-62
2022/07/21 08:51:20;;;;;;;3.55;3.28;;;;;;;32.98;48.24;154349.06;5085990;28;20200;-61
2022/07/21 08:53:47;;;;;;;5.30;3.53;;;;;;;32.78;49.14;154296.44;5072613;28;20197;-62
2022/07/21 08:56:14;;;;;;;6.38;3.60;;;;;;;33.14;49.92;154388.94;5072805;28;20601;-63
2022/07/21 08:58:41;;;;;;;3.75;3.40;;;;;;;33.50;48.36;154480.06;5073032;28;20189;-62
2022/07/21 09:01:08;;;;;;;4.18;3.38;;;;;;;33.54;46.80;154490.34;5072939;28;20192;-61
2022/07/21 09:03:35;;;;;;;3.92;3.60;;;;;;;33.67;46.77;154522.50;5073418;28;20189;-62
2022/07/21 09:06:07;;;;;;;3.80;3.40;;;;;;;33.79;46.96;154553.31;5072916;28;20195;-61
2022/07/21 09:08:36;;;;;;;3.50;3.30;;;;;;;33.75;45.78;154543.03;5072592;28;20300;-63
2022/07/21 09:11:10;;;;;;;3.72;3.42;;;;;;;34.01;45.74;154608.53;5072623;28;20289;-62
2022/07/21 09:13:37;;;;;;;3.75;3.40;;;;;;;33.74;45.80;154541.75;5078524;28;20682;-62
2022/07/21 09:16:05;;;;;;;3.83;3.50;;;;;;;34.00;45.78;154605.97;5074632;28;20204;-62
2022/07/21 09:18:32;;;;;;;3.92;3.55;;;;;;;33.82;47.35;154561.06;5077610;28;20204;-62
2022/07/21 09:21:01;;;;;;;3.72;3.40;;;;;;;33.79;45.56;154554.59;5076935;28;20236;-62
2022/07/21 09:23:30;;;;;;;3.88;3.40;;;;;;;34.08;45.72;154626.50;5079064;28;20283;-61
2022/07/21 09:25:59;;;;;;;4.25;3.08;;;;;;;33.65;45.18;154518.69;5072851;28;20628;-62
2022/07/21 09:28:27;;;;;;;3.92;3.38;;;;;;;33.93;45.23;154590.56;5074434;28;20693;-61
2022/07/21 09:30:58;;;;;;;3.72;3.40;;;;;;;34.71;44.77;154788.47;5072653;28;20263;-61
2022/07/21 09:33:31;;;;;;;3.78;3.47;;;;;;;35.63;42.06;155021.19;5077328;28;20193;-63
2022/07/21 09:36:08;;;;;;;3.20;2.95;;;;;;;35.20;42.53;154911.91;5078344;28;20212;-62
2022/07/21 09:38:38;;;;;;;3.10;2.90;;;;;;;35.07;42.10;154879.75;5091347;28;20199;-62
2022/07/21 09:41:07;;;;;;;5.40;3.50;;;;;;;34.27;43.58;154675.41;5093233;28;20184;-63
2022/07/21 09:43:41;;;;;;;3.83;3.33;;;;;;;33.47;44.25;154473.69;5092768;28;20184;-63
2022/07/21 09:46:10;;;;;;;3.78;3.38;;;;;;;33.28;45.27;154423.56;5092783;28;20180;-62
2022/07/21 09:48:40;;;;;;;3.75;3.47;;;;;;;33.45;44.76;154467.22;5092277;28;20195;-62
2022/07/21 09:51:25;;;;;;;4.10;3.70;;;;;;;32.80;46.04;154302.88;5092279;28;20234;-62
2022/07/21 09:53:56;;;;;;;4.78;3.65;;;;;;;32.33;47.92;154183.47;5092644;28;20661;-62
2022/07/21 09:56:25;;;;;;;4.80;3.25;;;;;;;32.81;46.51;154304.13;5092747;28;20204;-62
2022/07/21 09:58:54;;;;;;;4.20;3.85;;;;;;;33.53;47.68;154487.75;5092381;28;20226;-62
2022/07/21 10:01:22;;;;;;;4.15;3.60;;;;;;;34.06;44.79;154621.41;5087210;28;20598;-62
2022/07/21 10:03:51;;;;;;;4.95;3.55;;;;;;;34.20;43.95;154657.44;5072770;28;20208;-62
2022/07/21 10:06:19;;;;;;;13.10;11.52;;;;;;;34.68;45.20;154780.78;5072140;28;20185;-63
2022/07/21 10:08:47;;;;;;;10.48;3.85;;;;;;;34.91;42.40;154837.34;5103659;28;20298;-62
2022/07/21 10:11:16;;;;;;;4.95;3.40;;;;;;;34.21;54.60;154659.97;5072644;28;20239;-62
2022/07/21 10:13:44;;;;;;;6.22;3.58;;;;;;;31.78;79.45;154042.31;5080628;28;20214;-62
2022/07/21 10:16:13;;;;;;;6.05;4.15;;;;;;;31.03;91.47;153853.69;5072225;28;20204;-62
2022/07/21 10:18:51;;;;;;;4.95;3.83;;;;;;;30.94;98.11;153830.56;5072844;28;20637;-61
2022/07/21 10:21:40;;;;;;;6.90;4.40;;;;;;;30.46;100.00;153707.50;5072075;28;20220;-62
2022/07/21 10:24:10;;;;;;;7.53;4.22;;;;;;;30.38;100.00;153688.25;5076263;28;20189;-62
2022/07/21 10:26:38;;;;;;;8.27;4.22;;;;;;;30.12;100.00;153621.59;5076181;28;20290;-62
2022/07/21 10:29:05;;;;;;;14.30;4.68;;;;;;;29.97;100.00;153584.41;5076616;28;20528;-62
2022/07/21 10:31:42;;;;;;;9.38;4.15;;;;;;;29.55;100.00;153478.03;5076012;28;20188;-62
2022/07/21 10:34:09;;;;;;;6.15;5.30;;;;;;;29.43;100.00;153448.56;5076781;28;20628;-62
2022/07/21 10:36:44;;;;;;;8.55;4.13;;;;;;;29.45;100.00;153453.69;5076508;28;20209;-63
2022/07/21 10:39:32;;;;;;;6.25;4.22;;;;;;;29.33;100.00;153422.94;5074412;28;20215;-62
2022/07/21 10:42:15;;;;;;;4.10;3.90;;;;;;;29.15;100.00;153376.81;5112990;27;20670;-62
2022/07/21 10:44:53;;;;;;;5.97;4.65;;;;;;;29.20;100.00;153389.59;5082740;28;20586;-62
2022/07/21 10:47:24;;;;;;;5.32;4.35;;;;;;;29.20;100.00;153389.59;5095325;28;20191;-62
2022/07/21 10:49:54;;;;;;;4.35;3.95;;;;;;;28.93;100.00;153321.72;5095763;28;20307;-63
2022/07/21 10:52:59;;;;;;;5.05;4.28;;;;;;;28.91;100.00;153315.31;5088545;28;20193;-62
2022/07/21 10:55:29;;;;;;;4.68;4.38;;;;;;;28.74;100.00;153273.03;5095398;28;20273;-60
2022/07/21 10:58:26;;;;;;;4.38;3.75;;;;;;;28.56;100.00;153228.19;5087313;28;20295;-62
2022/07/21 11:00:54;;;;;;;17.27;4.57;;;;;;;28.73;100.00;153270.47;5062233;28;20197;-63
2022/07/21 11:03:28;;;;;;;5.82;4.47;;;;;;;28.54;100.00;153223.09;5075460;28;20196;-61
2022/07/21 11:06:26;;;;;;;4.90;4.28;;;;;;;28.66;100.00;153252.50;5074924;28;20211;-63
2022/07/21 11:09:06;;;;;;;5.10;3.83;;;;;;;28.46;100.00;153201.31;5013753;28;20209;-62
2022/07/21 11:11:35;;;;;;;7.10;4.40;;;;;;;28.55;100.00;153225.66;5066273;28;20236;-62
2022/07/21 11:14:07;;;;;;;8.07;4.63;;;;;;;28.47;100.00;153203.88;5076132;28;20612;-62
2022/07/21 11:17:02;;;;;;;4.63;4.32;;;;;;;28.32;100.00;153166.75;5075290;28;20200;-63
2022/07/21 11:19:31;;;;;;;5.88;4.15;;;;;;;28.05;100.00;153097.59;5074605;28;20189;-63
2022/07/21 11:21:59;;;;;;;4.95;4.43;;;;;;;28.12;100.00;153115.56;5074633;28;20217;-63
2022/07/21 11:24:28;;;;;;;5.10;4.70;;;;;;;28.05;100.00;153097.59;5074711;28;20518;-62
2022/07/21 11:26:55;;;;;;;4.93;4.47;;;;;;;27.93;100.00;153066.84;5083443;28;20266;-62
2022/07/21 11:29:24;;;;;;;4.50;4.20;;;;;;;27.77;100.00;153027.19;5074299;28;20184;-62